sensor_id;sensor_type;location;lat;lon;timestamp;temperature;humidity
19974;DHT22;10148;47.694;9.442;2023-03-03T00:00:57;2.50;99.90
19974;DHT22;10148;47.694;9.442;2023-03-03T00:03:24;2.50;99.90
19974;DHT22;10148;47.694;9.442;2023-03-03T00:05:50;2.50;99.90
19974;DHT22;10148;47.694;9.442;2023-03-03T00:08:17;2.50;99.90
19974;DHT22;10148;47.694;9.442;2023-03-03T00:10:43;2.50;99.90
19974;DHT22;10148;47.694;9.442;2023-03-03T00:13:24;2.50;99.90
19974;DHT22;10148;47.694;9.442;2023-03-03T00:15:50;2.50;99.90
19974;DHT22;10148;47.694;9.442;2023-03-03T00:18:44;2.50;99.90
19974;DHT22;10148;47.694;9.442;2023-03-03T00:21:21;2.60;99.90
19974;DHT22;10148;47.694;9.442;2023-03-03T00:23:47;2.60;99.90
19974;DHT22;10148;47.694;9.442;2023-03-03T00:26:29;2.60;99.90
19974;DHT22;10148;47.694;9.442;2023-03-03T00:28:55;2.70;99.90
19974;DHT22;10148;47.694;9.442;2023-03-03T00:31:34;2.60;99.90
19974;DHT22;10148;47.694;9.442;2023-03-03T00:34:24;2.40;99.90
19974;DHT22;10148;47.694;9.442;2023-03-03T00:36:53;2.40;99.90
19974;DHT22;10148;47.694;9.442;2023-03-03T00:39:30;2.30;99.90
19974;DHT22;10148;47.694;9.442;2023-03-03T00:41:57;2.30;99.90
19974;DHT22;10148;47.694;9.442;2023-03-03T00:44:39;2.30;99.90
19974;DHT22;10148;47.694;9.442;2023-03-03T00:47:22;2.30;99.90
19974;DHT22;10148;47.694;9.442;2023-03-03T00:49:48;2.30;99.90
19974;DHT22;10148;47.694;9.442;2023-03-03T00:52:16;2.30;99.90
19974;DHT22;10148;47.694;9.442;2023-03-03T00:54:42;2.20;99.90
19974;DHT22;10148;47.694;9.442;2023-03-03T00:57:09;2.10;99.90
19974;DHT22;10148;47.694;9.442;2023-03-03T00:59:34;2.10;99.90
19974;DHT22;10148;47.694;9.442;2023-03-03T01:02:00;2.10;99.90
19974;DHT22;10148;47.694;9.442;2023-03-03T01:04:25;2.10;99.90
19974;DHT22;10148;47.694;9.442;2023-03-03T01:06:51;2.10;99.90
19974;DHT22;10148;47.694;9.442;2023-03-03T01:09:16;2.10;99.90
19974;DHT22;10148;47.694;9.442;2023-03-03T01:11:42;2.20;99.90
19974;DHT22;10148;47.694;9.442;2023-03-03T01:14:08;2.20;99.90
19974;DHT22;10148;47.694;9.442;2023-03-03T01:16:33;2.20;99.90
19974;DHT22;10148;47.694;9.442;2023-03-03T01:18:59;2.20;99.90
19974;DHT22;10148;47.694;9.442;2023-03-03T01:21:25;2.20;99.90
19974;DHT22;10148;47.694;9.442;2023-03-03T01:23:50;2.30;99.90
19974;DHT22;10148;47.694;9.442;2023-03-03T01:26:16;2.30;99.90
19974;DHT22;10148;47.694;9.442;2023-03-03T01:28:41;2.30;99.90
19974;DHT22;10148;47.694;9.442;2023-03-03T01:31:07;2.20;99.90
19974;DHT22;10148;47.694;9.442;2023-03-03T01:33:34;2.20;99.90
19974;DHT22;10148;47.694;9.442;2023-03-03T01:36:00;2.20;99.90
19974;DHT22;10148;47.694;9.442;2023-03-03T01:38:26;2.20;99.90
19974;DHT22;10148;47.694;9.442;2023-03-03T01:40:56;2.20;99.90
19974;DHT22;10148;47.694;9.442;2023-03-03T01:43:25;2.20;99.90
19974;DHT22;10148;47.694;9.442;2023-03-03T01:48:24;2.10;99.90
19974;DHT22;10148;47.694;9.442;2023-03-03T01:51:00;2.10;99.90
19974;DHT22;10148;47.694;9.442;2023-03-03T01:55:55;2.00;99.90
19974;DHT22;10148;47.694;9.442;2023-03-03T01:58:28;2.00;99.90
19974;DHT22;10148;47.694;9.442;2023-03-03T02:01:03;2.00;99.90
19974;DHT22;10148;47.694;9.442;2023-03-03T02:03:29;2.00;99.90
19974;DHT22;10148;47.694;9.442;2023-03-03T02:05:59;2.00;99.90
19974;DHT22;10148;47.694;9.442;2023-03-03T02:08:31;2.10;99.90
19974;DHT22;10148;47.694;9.442;2023-03-03T02:11:00;2.10;99.90
19974;DHT22;10148;47.694;9.442;2023-03-03T02:13:26;2.10;99.90
19974;DHT22;10148;47.694;9.442;2023-03-03T02:15:52;2.20;99.90
19974;DHT22;10148;47.694;9.442;2023-03-03T02:18:19;2.20;99.90
19974;DHT22;10148;47.694;9.442;2023-03-03T02:23:24;2.20;99.90
19974;DHT22;10148;47.694;9.442;2023-03-03T02:28:20;2.10;99.90
19974;DHT22;10148;47.694;9.442;2023-03-03T02:30:46;2.20;99.90
19974;DHT22;10148;47.694;9.442;2023-03-03T02:33:11;2.20;99.90
19974;DHT22;10148;47.694;9.442;2023-03-03T02:35:39;2.30;99.90
19974;DHT22;10148;47.694;9.442;2023-03-03T02:38:13;2.20;99.90
19974;DHT22;10148;47.694;9.442;2023-03-03T02:40:48;2.20;99.90
19974;DHT22;10148;47.694;9.442;2023-03-03T02:43:17;2.10;99.90
19974;DHT22;10148;47.694;9.442;2023-03-03T02:45:44;2.10;99.90
19974;DHT22;10148;47.694;9.442;2023-03-03T02:48:10;2.10;99.90
19974;DHT22;10148;47.694;9.442;2023-03-03T02:50:36;2.10;99.90
19974;DHT22;10148;47.694;9.442;2023-03-03T02:53:02;2.10;99.90
19974;DHT22;10148;47.694;9.442;2023-03-03T02:55:28;2.00;99.90
19974;DHT22;10148;47.694;9.442;2023-03-03T02:57:53;1.90;99.90
19974;DHT22;10148;47.694;9.442;2023-03-03T03:00:19;1.90;99.90
19974;DHT22;10148;47.694;9.442;2023-03-03T03:02:45;2.00;99.90
19974;DHT22;10148;47.694;9.442;2023-03-03T03:05:11;2.00;99.90
19974;DHT22;10148;47.694;9.442;2023-03-03T03:07:37;2.10;99.90
19974;DHT22;10148;47.694;9.442;2023-03-03T03:10:02;2.10;99.90
19974;DHT22;10148;47.694;9.442;2023-03-03T03:12:28;2.10;99.90
19974;DHT22;10148;47.694;9.442;2023-03-03T03:14:54;2.10;99.90
19974;DHT22;10148;47.694;9.442;2023-03-03T03:17:19;2.10;99.90
19974;DHT22;10148;47.694;9.442;2023-03-03T03:19:45;2.10;99.90
19974;DHT22;10148;47.694;9.442;2023-03-03T03:22:10;2.10;99.90
19974;DHT22;10148;47.694;9.442;2023-03-03T03:24:36;2.10;99.90
19974;DHT22;10148;47.694;9.442;2023-03-03T03:27:01;2.10;99.90
19974;DHT22;10148;47.694;9.442;2023-03-03T03:29:27;2.10;99.90
19974;DHT22;10148;47.694;9.442;2023-03-03T03:31:52;2.10;99.90
19974;DHT22;10148;47.694;9.442;2023-03-03T03:34:18;2.10;99.90
19974;DHT22;10148;47.694;9.442;2023-03-03T03:36:43;2.10;99.90
19974;DHT22;10148;47.694;9.442;2023-03-03T03:39:11;2.10;99.90
19974;DHT22;10148;47.694;9.442;2023-03-03T03:41:37;2.10;99.90
19974;DHT22;10148;47.694;9.442;2023-03-03T03:44:02;2.00;99.90
19974;DHT22;10148;47.694;9.442;2023-03-03T03:46:28;2.10;99.90
19974;DHT22;10148;47.694;9.442;2023-03-03T03:48:53;2.00;99.90
19974;DHT22;10148;47.694;9.442;2023-03-03T03:51:19;2.00;99.90
19974;DHT22;10148;47.694;9.442;2023-03-03T03:53:44;2.00;99.90
19974;DHT22;10148;47.694;9.442;2023-03-03T03:56:10;2.00;99.90
19974;DHT22;10148;47.694;9.442;2023-03-03T03:58:36;1.90;99.90
19974;DHT22;10148;47.694;9.442;2023-03-03T04:01:03;1.90;99.90
19974;DHT22;10148;47.694;9.442;2023-03-03T04:03:29;2.00;99.90
19974;DHT22;10148;47.694;9.442;2023-03-03T04:05:55;2.00;99.90
19974;DHT22;10148;47.694;9.442;2023-03-03T04:08:21;2.00;99.90
19974;DHT22;10148;47.694;9.442;2023-03-03T04:10:46;2.00;99.90
19974;DHT22;10148;47.694;9.442;2023-03-03T04:13:12;2.10;99.90
19974;DHT22;10148;47.694;9.442;2023-03-03T04:15:37;2.10;99.90
19974;DHT22;10148;47.694;9.442;2023-03-03T04:18:03;2.20;99.90
19974;DHT22;10148;47.694;9.442;2023-03-03T04:20:29;2.10;99.90
19974;DHT22;10148;47.694;9.442;2023-03-03T04:22:54;2.10;99.90
19974;DHT22;10148;47.694;9.442;2023-03-03T04:25:21;2.10;99.90
19974;DHT22;10148;47.694;9.442;2023-03-03T04:27:47;2.10;99.90
19974;DHT22;10148;47.694;9.442;2023-03-03T04:30:14;2.20;99.90
19974;DHT22;10148;47.694;9.442;2023-03-03T04:32:40;2.20;99.90
19974;DHT22;10148;47.694;9.442;2023-03-03T04:35:06;2.20;99.90
19974;DHT22;10148;47.694;9.442;2023-03-03T04:37:31;2.20;99.90
19974;DHT22;10148;47.694;9.442;2023-03-03T04:39:57;2.20;99.90
19974;DHT22;10148;47.694;9.442;2023-03-03T04:42:22;2.20;99.90
19974;DHT22;10148;47.694;9.442;2023-03-03T04:44:48;2.10;99.90
19974;DHT22;10148;47.694;9.442;2023-03-03T04:47:13;2.10;99.90
19974;DHT22;10148;47.694;9.442;2023-03-03T04:49:39;2.10;99.90
19974;DHT22;10148;47.694;9.442;2023-03-03T04:52:04;2.10;99.90
19974;DHT22;10148;47.694;9.442;2023-03-03T04:54:30;2.10;99.90
19974;DHT22;10148;47.694;9.442;2023-03-03T04:56:56;2.10;99.90
19974;DHT22;10148;47.694;9.442;2023-03-03T04:59:22;2.10;99.90
19974;DHT22;10148;47.694;9.442;2023-03-03T05:01:48;2.10;99.90
19974;DHT22;10148;47.694;9.442;2023-03-03T05:04:15;2.10;99.90
19974;DHT22;10148;47.694;9.442;2023-03-03T05:06:41;2.10;99.90
19974;DHT22;10148;47.694;9.442;2023-03-03T05:09:06;2.00;99.90
19974;DHT22;10148;47.694;9.442;2023-03-03T05:11:32;2.00;99.90
19974;DHT22;10148;47.694;9.442;2023-03-03T05:13:58;2.00;99.90
19974;DHT22;10148;47.694;9.442;2023-03-03T05:16:23;2.10;99.90
19974;DHT22;10148;47.694;9.442;2023-03-03T05:18:49;2.10;99.90
19974;DHT22;10148;47.694;9.442;2023-03-03T05:21:15;2.10;99.90
19974;DHT22;10148;47.694;9.442;2023-03-03T05:23:40;2.10;99.90
19974;DHT22;10148;47.694;9.442;2023-03-03T05:26:06;2.10;99.90
19974;DHT22;10148;47.694;9.442;2023-03-03T05:28:31;2.10;99.90
19974;DHT22;10148;47.694;9.442;2023-03-03T05:30:57;2.10;99.90
19974;DHT22;10148;47.694;9.442;2023-03-03T05:33:23;2.10;99.90
19974;DHT22;10148;47.694;9.442;2023-03-03T05:35:56;2.20;99.90
19974;DHT22;10148;47.694;9.442;2023-03-03T05:38:22;2.30;99.90
19974;DHT22;10148;47.694;9.442;2023-03-03T05:40:48;2.30;99.90
19974;DHT22;10148;47.694;9.442;2023-03-03T05:43:13;2.30;99.90
19974;DHT22;10148;47.694;9.442;2023-03-03T05:45:39;2.20;99.90
19974;DHT22;10148;47.694;9.442;2023-03-03T05:48:05;2.20;99.90
19974;DHT22;10148;47.694;9.442;2023-03-03T05:50:30;2.10;99.90
19974;DHT22;10148;47.694;9.442;2023-03-03T05:52:57;2.10;99.90
19974;DHT22;10148;47.694;9.442;2023-03-03T05:55:23;2.10;99.90
19974;DHT22;10148;47.694;9.442;2023-03-03T05:57:48;2.20;99.90
19974;DHT22;10148;47.694;9.442;2023-03-03T06:00:15;2.20;99.90
19974;DHT22;10148;47.694;9.442;2023-03-03T06:02:41;2.20;99.90
19974;DHT22;10148;47.694;9.442;2023-03-03T06:05:07;2.20;99.90
19974;DHT22;10148;47.694;9.442;2023-03-03T06:07:33;2.20;99.90
19974;DHT22;10148;47.694;9.442;2023-03-03T06:09:59;2.10;99.90
19974;DHT22;10148;47.694;9.442;2023-03-03T06:12:24;2.10;99.90
19974;DHT22;10148;47.694;9.442;2023-03-03T06:14:50;2.10;99.90
19974;DHT22;10148;47.694;9.442;2023-03-03T06:17:15;2.10;99.90
19974;DHT22;10148;47.694;9.442;2023-03-03T06:19:41;2.10;99.90
19974;DHT22;10148;47.694;9.442;2023-03-03T06:22:07;2.10;99.90
19974;DHT22;10148;47.694;9.442;2023-03-03T06:24:33;2.10;99.90
19974;DHT22;10148;47.694;9.442;2023-03-03T06:26:59;2.10;99.90
19974;DHT22;10148;47.694;9.442;2023-03-03T06:29:25;2.10;99.90
19974;DHT22;10148;47.694;9.442;2023-03-03T06:31:51;2.10;99.90
19974;DHT22;10148;47.694;9.442;2023-03-03T06:34:16;2.20;99.90
19974;DHT22;10148;47.694;9.442;2023-03-03T06:36:42;2.20;99.90
19974;DHT22;10148;47.694;9.442;2023-03-03T06:39:07;2.20;99.90
19974;DHT22;10148;47.694;9.442;2023-03-03T06:41:33;2.30;99.90
19974;DHT22;10148;47.694;9.442;2023-03-03T06:43:59;2.30;99.90
19974;DHT22;10148;47.694;9.442;2023-03-03T06:46:25;2.30;99.90
19974;DHT22;10148;47.694;9.442;2023-03-03T06:48:50;2.30;99.90
19974;DHT22;10148;47.694;9.442;2023-03-03T06:51:26;2.30;99.90
19974;DHT22;10148;47.694;9.442;2023-03-03T06:53:56;2.30;99.90
19974;DHT22;10148;47.694;9.442;2023-03-03T06:56:25;2.20;99.90
19974;DHT22;10148;47.694;9.442;2023-03-03T06:59:00;2.20;99.90
19974;DHT22;10148;47.694;9.442;2023-03-03T07:01:35;2.20;99.90
19974;DHT22;10148;47.694;9.442;2023-03-03T07:04:04;2.20;99.90
19974;DHT22;10148;47.694;9.442;2023-03-03T07:06:31;2.20;99.90
19974;DHT22;10148;47.694;9.442;2023-03-03T07:08:57;2.20;99.90
19974;DHT22;10148;47.694;9.442;2023-03-03T07:11:22;2.20;99.90
19974;DHT22;10148;47.694;9.442;2023-03-03T07:13:53;2.20;99.90
19974;DHT22;10148;47.694;9.442;2023-03-03T07:16:24;2.20;99.90
19974;DHT22;10148;47.694;9.442;2023-03-03T07:23:49;2.30;99.90
19974;DHT22;10148;47.694;9.442;2023-03-03T07:26:22;2.30;99.90
19974;DHT22;10148;47.694;9.442;2023-03-03T07:29:02;2.30;99.90
19974;DHT22;10148;47.694;9.442;2023-03-03T07:31:39;2.40;99.90
19974;DHT22;10148;47.694;9.442;2023-03-03T07:34:37;2.40;99.90
19974;DHT22;10148;47.694;9.442;2023-03-03T07:37:30;2.40;99.90
19974;DHT22;10148;47.694;9.442;2023-03-03T07:39:59;2.50;99.90
19974;DHT22;10148;47.694;9.442;2023-03-03T07:42:30;2.50;99.90
19974;DHT22;10148;47.694;9.442;2023-03-03T07:45:00;2.60;99.90
19974;DHT22;10148;47.694;9.442;2023-03-03T07:47:29;2.60;99.90
19974;DHT22;10148;47.694;9.442;2023-03-03T07:50:28;2.60;99.90
19974;DHT22;10148;47.694;9.442;2023-03-03T07:52:58;2.70;99.90
19974;DHT22;10148;47.694;9.442;2023-03-03T07:57:53;2.70;99.90
19974;DHT22;10148;47.694;9.442;2023-03-03T08:03:03;2.80;99.90
19974;DHT22;10148;47.694;9.442;2023-03-03T08:05:43;2.90;99.90
19974;DHT22;10148;47.694;9.442;2023-03-03T08:13:36;3.00;99.90
19974;DHT22;10148;47.694;9.442;2023-03-03T08:18:43;3.10;99.90
19974;DHT22;10148;47.694;9.442;2023-03-03T08:21:18;3.10;99.90
19974;DHT22;10148;47.694;9.442;2023-03-03T08:23:44;3.20;99.90
19974;DHT22;10148;47.694;9.442;2023-03-03T08:26:10;3.20;99.90
19974;DHT22;10148;47.694;9.442;2023-03-03T08:28:37;3.20;99.90
19974;DHT22;10148;47.694;9.442;2023-03-03T08:31:02;3.30;99.90
19974;DHT22;10148;47.694;9.442;2023-03-03T08:33:28;3.30;99.90
19974;DHT22;10148;47.694;9.442;2023-03-03T08:35:53;3.30;99.90
19974;DHT22;10148;47.694;9.442;2023-03-03T08:38:20;3.30;99.90
19974;DHT22;10148;47.694;9.442;2023-03-03T08:40:47;3.30;99.90
19974;DHT22;10148;47.694;9.442;2023-03-03T08:43:14;3.30;99.90
19974;DHT22;10148;47.694;9.442;2023-03-03T08:45:45;3.40;99.90
19974;DHT22;10148;47.694;9.442;2023-03-03T08:48:11;3.40;99.90
19974;DHT22;10148;47.694;9.442;2023-03-03T08:50:37;3.50;99.90
19974;DHT22;10148;47.694;9.442;2023-03-03T08:53:04;3.50;99.90
19974;DHT22;10148;47.694;9.442;2023-03-03T08:55:30;3.50;99.90
19974;DHT22;10148;47.694;9.442;2023-03-03T08:57:55;3.60;99.90
19974;DHT22;10148;47.694;9.442;2023-03-03T09:00:21;3.60;99.90
19974;DHT22;10148;47.694;9.442;2023-03-03T09:02:48;3.70;99.90
19974;DHT22;10148;47.694;9.442;2023-03-03T09:05:15;3.80;99.90
19974;DHT22;10148;47.694;9.442;2023-03-03T09:07:43;3.80;99.90
19974;DHT22;10148;47.694;9.442;2023-03-03T09:10:11;3.80;99.90
19974;DHT22;10148;47.694;9.442;2023-03-03T09:12:42;3.90;99.90
19974;DHT22;10148;47.694;9.442;2023-03-03T09:15:22;4.00;99.90
19974;DHT22;10148;47.694;9.442;2023-03-03T09:17:48;4.00;99.90
19974;DHT22;10148;47.694;9.442;2023-03-03T09:20:30;4.10;99.90
19974;DHT22;10148;47.694;9.442;2023-03-03T09:25:54;4.20;99.90
19974;DHT22;10148;47.694;9.442;2023-03-03T09:28:26;4.20;99.90
19974;DHT22;10148;47.694;9.442;2023-03-03T09:30:54;4.20;99.90
19974;DHT22;10148;47.694;9.442;2023-03-03T09:33:28;4.20;99.90
19974;DHT22;10148;47.694;9.442;2023-03-03T09:38:45;4.30;99.90
19974;DHT22;10148;47.694;9.442;2023-03-03T09:41:45;4.40;99.90
19974;DHT22;10148;47.694;9.442;2023-03-03T09:47:02;4.50;99.90
19974;DHT22;10148;47.694;9.442;2023-03-03T09:49:35;4.60;99.90
19974;DHT22;10148;47.694;9.442;2023-03-03T09:52:20;4.60;99.90
19974;DHT22;10148;47.694;9.442;2023-03-03T09:55:25;4.60;99.90
19974;DHT22;10148;47.694;9.442;2023-03-03T10:08:50;4.70;99.90
19974;DHT22;10148;47.694;9.442;2023-03-03T10:11:49;4.70;99.90
19974;DHT22;10148;47.694;9.442;2023-03-03T10:16:56;4.70;99.90
19974;DHT22;10148;47.694;9.442;2023-03-03T10:19:57;4.70;99.90
19974;DHT22;10148;47.694;9.442;2023-03-03T10:25:27;4.70;99.90
19974;DHT22;10148;47.694;9.442;2023-03-03T10:33:38;4.70;99.90
19974;DHT22;10148;47.694;9.442;2023-03-03T10:39:21;4.90;99.90
19974;DHT22;10148;47.694;9.442;2023-03-03T10:47:36;4.70;99.90
19974;DHT22;10148;47.694;9.442;2023-03-03T10:50:26;4.80;99.90
19974;DHT22;10148;47.694;9.442;2023-03-03T10:53:21;4.80;99.90
19974;DHT22;10148;47.694;9.442;2023-03-03T10:59:02;4.90;99.90
19974;DHT22;10148;47.694;9.442;2023-03-03T11:07:06;5.20;99.90
19974;DHT22;10148;47.694;9.442;2023-03-03T11:15:13;5.60;99.90
19974;DHT22;10148;47.694;9.442;2023-03-03T11:18:07;5.80;99.90
19974;DHT22;10148;47.694;9.442;2023-03-03T11:29:00;5.60;99.90
19974;DHT22;10148;47.694;9.442;2023-03-03T11:31:47;5.60;99.90
19974;DHT22;10148;47.694;9.442;2023-03-03T11:34:45;5.50;99.90
19974;DHT22;10148;47.694;9.442;2023-03-03T11:37:26;5.40;99.90
19974;DHT22;10148;47.694;9.442;2023-03-03T11:39:56;5.40;99.90
19974;DHT22;10148;47.694;9.442;2023-03-03T11:42:39;5.40;99.90
19974;DHT22;10148;47.694;9.442;2023-03-03T11:45:16;5.40;99.90
19974;DHT22;10148;47.694;9.442;2023-03-03T11:48:01;5.50;99.90
19974;DHT22;10148;47.694;9.442;2023-03-03T11:50:35;5.50;99.90
19974;DHT22;10148;47.694;9.442;2023-03-03T11:55:55;5.50;99.90
19974;DHT22;10148;47.694;9.442;2023-03-03T11:58:27;5.50;99.90
19974;DHT22;10148;47.694;9.442;2023-03-03T12:04:01;5.60;99.90
19974;DHT22;10148;47.694;9.442;2023-03-03T12:06:53;5.60;99.90
19974;DHT22;10148;47.694;9.442;2023-03-03T12:12:01;5.70;99.90
19974;DHT22;10148;47.694;9.442;2023-03-03T12:20:02;5.60;99.90
19974;DHT22;10148;47.694;9.442;2023-03-03T12:22:41;5.60;99.90
19974;DHT22;10148;47.694;9.442;2023-03-03T12:25:24;5.60;99.90
19974;DHT22;10148;47.694;9.442;2023-03-03T12:27:58;5.60;99.90
19974;DHT22;10148;47.694;9.442;2023-03-03T12:33:37;5.80;99.90
19974;DHT22;10148;47.694;9.442;2023-03-03T12:42:39;6.10;99.90
19974;DHT22;10148;47.694;9.442;2023-03-03T12:47:37;6.20;99.90
19974;DHT22;10148;47.694;9.442;2023-03-03T12:56:03;6.30;99.90
19974;DHT22;10148;47.694;9.442;2023-03-03T12:58:51;6.40;99.90
19974;DHT22;10148;47.694;9.442;2023-03-03T13:01:27;6.40;99.90
19974;DHT22;10148;47.694;9.442;2023-03-03T13:06:45;6.40;99.90
19974;DHT22;10148;47.694;9.442;2023-03-03T13:20:00;6.70;99.90
19974;DHT22;10148;47.694;9.442;2023-03-03T13:25:34;6.80;99.90
19974;DHT22;10148;47.694;9.442;2023-03-03T13:28:17;6.90;99.90
19974;DHT22;10148;47.694;9.442;2023-03-03T13:30:51;6.90;99.90
19974;DHT22;10148;47.694;9.442;2023-03-03T13:33:29;6.90;99.90
19974;DHT22;10148;47.694;9.442;2023-03-03T13:36:12;6.90;99.90
19974;DHT22;10148;47.694;9.442;2023-03-03T13:38:46;6.80;99.90
19974;DHT22;10148;47.694;9.442;2023-03-03T13:41:24;6.70;99.90
19974;DHT22;10148;47.694;9.442;2023-03-03T13:44:03;6.60;99.90
19974;DHT22;10148;47.694;9.442;2023-03-03T13:49:11;6.30;99.90
19974;DHT22;10148;47.694;9.442;2023-03-03T13:51:52;6.30;99.90
19974;DHT22;10148;47.694;9.442;2023-03-03T13:54:43;6.40;99.90
19974;DHT22;10148;47.694;9.442;2023-03-03T13:59:53;6.50;99.90
19974;DHT22;10148;47.694;9.442;2023-03-03T14:05:30;6.60;99.90
19974;DHT22;10148;47.694;9.442;2023-03-03T14:08:02;6.60;99.90
19974;DHT22;10148;47.694;9.442;2023-03-03T14:16:37;6.20;99.90
19974;DHT22;10148;47.694;9.442;2023-03-03T14:21:42;6.20;99.90
19974;DHT22;10148;47.694;9.442;2023-03-03T14:24:16;6.20;99.90
19974;DHT22;10148;47.694;9.442;2023-03-03T14:26:56;6.20;99.90
19974;DHT22;10148;47.694;9.442;2023-03-03T14:31:50;6.20;99.90
19974;DHT22;10148;47.694;9.442;2023-03-03T14:36:49;6.40;99.90
19974;DHT22;10148;47.694;9.442;2023-03-03T14:39:35;6.30;99.90
19974;DHT22;10148;47.694;9.442;2023-03-03T14:42:35;6.20;99.90
19974;DHT22;10148;47.694;9.442;2023-03-03T14:44:59;6.20;99.90
19974;DHT22;10148;47.694;9.442;2023-03-03T14:47:27;6.20;99.90
19974;DHT22;10148;47.694;9.442;2023-03-03T14:49:54;6.40;99.90
19974;DHT22;10148;47.694;9.442;2023-03-03T14:52:26;6.30;99.90
19974;DHT22;10148;47.694;9.442;2023-03-03T14:55:29;6.30;99.90
19974;DHT22;10148;47.694;9.442;2023-03-03T14:57:56;6.20;99.90
19974;DHT22;10148;47.694;9.442;2023-03-03T15:05:27;6.20;99.90
19974;DHT22;10148;47.694;9.442;2023-03-03T15:10:37;6.30;99.90
19974;DHT22;10148;47.694;9.442;2023-03-03T15:21:30;5.80;99.90
19974;DHT22;10148;47.694;9.442;2023-03-03T15:24:30;5.80;99.90
19974;DHT22;10148;47.694;9.442;2023-03-03T15:27:20;5.80;99.90
19974;DHT22;10148;47.694;9.442;2023-03-03T15:30:24;5.80;99.90
19974;DHT22;10148;47.694;9.442;2023-03-03T15:36:00;6.20;99.90
19974;DHT22;10148;47.694;9.442;2023-03-03T15:38:33;6.20;99.90
19974;DHT22;10148;47.694;9.442;2023-03-03T15:41:18;6.40;99.90
19974;DHT22;10148;47.694;9.442;2023-03-03T15:44:12;6.30;99.90
19974;DHT22;10148;47.694;9.442;2023-03-03T15:50:00;6.30;99.90
19974;DHT22;10148;47.694;9.442;2023-03-03T15:55:31;6.10;99.90
19974;DHT22;10148;47.694;9.442;2023-03-03T15:58:20;6.10;99.90
19974;DHT22;10148;47.694;9.442;2023-03-03T16:04:08;6.10;99.90
19974;DHT22;10148;47.694;9.442;2023-03-03T16:06:55;6.10;99.90
19974;DHT22;10148;47.694;9.442;2023-03-03T16:09:39;6.20;99.90
19974;DHT22;10148;47.694;9.442;2023-03-03T16:23:47;6.00;99.90
19974;DHT22;10148;47.694;9.442;2023-03-03T16:29:10;5.90;99.90
19974;DHT22;10148;47.694;9.442;2023-03-03T16:34:34;5.80;99.90
19974;DHT22;10148;47.694;9.442;2023-03-03T16:39:54;5.80;99.90
19974;DHT22;10148;47.694;9.442;2023-03-03T16:42:32;5.70;99.90
19974;DHT22;10148;47.694;9.442;2023-03-03T16:45:35;5.70;99.90
19974;DHT22;10148;47.694;9.442;2023-03-03T16:54:02;5.60;99.90
19974;DHT22;10148;47.694;9.442;2023-03-03T16:56:37;5.50;99.90
19974;DHT22;10148;47.694;9.442;2023-03-03T17:02:14;5.50;99.90
19974;DHT22;10148;47.694;9.442;2023-03-03T17:04:54;5.50;99.90
19974;DHT22;10148;47.694;9.442;2023-03-03T17:10:45;5.50;99.90
19974;DHT22;10148;47.694;9.442;2023-03-03T17:18:51;5.40;99.90
19974;DHT22;10148;47.694;9.442;2023-03-03T17:22:03;5.50;99.90
19974;DHT22;10148;47.694;9.442;2023-03-03T17:24:42;5.50;99.90
19974;DHT22;10148;47.694;9.442;2023-03-03T17:44:05;5.40;99.90
19974;DHT22;10148;47.694;9.442;2023-03-03T17:46:49;5.50;99.90
19974;DHT22;10148;47.694;9.442;2023-03-03T17:50:08;5.40;99.90
19974;DHT22;10148;47.694;9.442;2023-03-03T17:52:48;5.50;99.90
19974;DHT22;10148;47.694;9.442;2023-03-03T17:58:05;5.50;99.90
19974;DHT22;10148;47.694;9.442;2023-03-03T18:09:09;5.60;99.90
19974;DHT22;10148;47.694;9.442;2023-03-03T18:11:55;5.50;99.90
19974;DHT22;10148;47.694;9.442;2023-03-03T18:14:44;5.60;99.90
19974;DHT22;10148;47.694;9.442;2023-03-03T18:17:34;5.60;99.90
19974;DHT22;10148;47.694;9.442;2023-03-03T18:22:46;5.60;99.90
19974;DHT22;10148;47.694;9.442;2023-03-03T18:25:15;5.60;99.90
19974;DHT22;10148;47.694;9.442;2023-03-03T18:30:55;5.60;99.90
19974;DHT22;10148;47.694;9.442;2023-03-03T18:33:41;5.60;99.90
19974;DHT22;10148;47.694;9.442;2023-03-03T18:38:53;5.60;99.90
19974;DHT22;10148;47.694;9.442;2023-03-03T18:42:02;5.60;99.90
19974;DHT22;10148;47.694;9.442;2023-03-03T18:44:27;5.60;99.90
19974;DHT22;10148;47.694;9.442;2023-03-03T18:46:53;5.50;99.90
19974;DHT22;10148;47.694;9.442;2023-03-03T18:49:55;5.50;99.90
19974;DHT22;10148;47.694;9.442;2023-03-03T18:52:25;5.40;99.90
19974;DHT22;10148;47.694;9.442;2023-03-03T18:57:40;5.40;99.90
19974;DHT22;10148;47.694;9.442;2023-03-03T19:00:27;5.40;99.90
19974;DHT22;10148;47.694;9.442;2023-03-03T19:02:56;5.40;99.90
19974;DHT22;10148;47.694;9.442;2023-03-03T19:05:35;5.40;99.90
19974;DHT22;10148;47.694;9.442;2023-03-03T19:08:03;5.40;99.90
19974;DHT22;10148;47.694;9.442;2023-03-03T19:10:49;5.50;99.90
19974;DHT22;10148;47.694;9.442;2023-03-03T19:16:37;5.50;99.90
19974;DHT22;10148;47.694;9.442;2023-03-03T19:19:14;5.40;99.90
19974;DHT22;10148;47.694;9.442;2023-03-03T19:21:49;5.40;99.90
19974;DHT22;10148;47.694;9.442;2023-03-03T19:24:27;5.40;99.90
19974;DHT22;10148;47.694;9.442;2023-03-03T19:32:24;5.30;99.90
19974;DHT22;10148;47.694;9.442;2023-03-03T19:35:29;5.20;99.90
19974;DHT22;10148;47.694;9.442;2023-03-03T19:38:21;5.20;99.90
19974;DHT22;10148;47.694;9.442;2023-03-03T19:41:01;5.20;99.90
19974;DHT22;10148;47.694;9.442;2023-03-03T19:46:19;5.20;99.90
19974;DHT22;10148;47.694;9.442;2023-03-03T19:48:54;5.20;99.90
19974;DHT22;10148;47.694;9.442;2023-03-03T19:59:23;5.10;99.90
19974;DHT22;10148;47.694;9.442;2023-03-03T20:04:34;5.20;99.90
19974;DHT22;10148;47.694;9.442;2023-03-03T20:15:16;5.20;99.90
19974;DHT22;10148;47.694;9.442;2023-03-03T20:17:57;5.20;99.90
19974;DHT22;10148;47.694;9.442;2023-03-03T20:23:10;5.10;99.90
19974;DHT22;10148;47.694;9.442;2023-03-03T20:28:34;5.20;99.90
19974;DHT22;10148;47.694;9.442;2023-03-03T20:42:55;5.20;99.90
19974;DHT22;10148;47.694;9.442;2023-03-03T20:45:36;5.20;99.90
19974;DHT22;10148;47.694;9.442;2023-03-03T20:51:08;5.20;99.90
19974;DHT22;10148;47.694;9.442;2023-03-03T20:56:38;5.00;99.90
19974;DHT22;10148;47.694;9.442;2023-03-03T21:04:43;4.90;99.90
19974;DHT22;10148;47.694;9.442;2023-03-03T21:07:22;4.90;99.90
19974;DHT22;10148;47.694;9.442;2023-03-03T21:09:49;4.90;99.90
19974;DHT22;10148;47.694;9.442;2023-03-03T21:12:28;4.90;99.90
19974;DHT22;10148;47.694;9.442;2023-03-03T21:15:02;4.90;99.90
19974;DHT22;10148;47.694;9.442;2023-03-03T21:17:29;4.90;99.90
19974;DHT22;10148;47.694;9.442;2023-03-03T21:22:43;4.90;99.90
19974;DHT22;10148;47.694;9.442;2023-03-03T21:25:11;4.90;99.90
19974;DHT22;10148;47.694;9.442;2023-03-03T21:31:03;4.90;99.90
19974;DHT22;10148;47.694;9.442;2023-03-03T21:33:55;5.00;99.90
19974;DHT22;10148;47.694;9.442;2023-03-03T21:36:24;4.90;99.90
19974;DHT22;10148;47.694;9.442;2023-03-03T21:44:34;4.90;99.90
19974;DHT22;10148;47.694;9.442;2023-03-03T21:47:00;4.90;99.90
19974;DHT22;10148;47.694;9.442;2023-03-03T21:49:26;4.90;99.90
19974;DHT22;10148;47.694;9.442;2023-03-03T21:51:53;4.80;99.90
19974;DHT22;10148;47.694;9.442;2023-03-03T21:54:18;4.80;99.90